sensor_id;sensor_type;location;lat;lon;timestamp;P1;durP1;ratioP1;P2;durP2;ratioP2
4553;SDS011;2289;48.316;15.174;2024-03-02T00:02:07;45.40;;;26.37;;
4553;SDS011;2289;48.316;15.174;2024-03-02T00:04:37;44.27;;;28.77;;
4553;SDS011;2289;48.316;15.174;2024-03-02T00:16:27;44.37;;;27.17;;
4553;SDS011;2289;48.316;15.174;2024-03-02T00:25:16;40.70;;;26.33;;
4553;SDS011;2289;48.316;15.174;2024-03-02T00:27:47;42.30;;;24.80;;
4553;SDS011;2289;48.316;15.174;2024-03-02T00:30:27;44.93;;;26.73;;
4553;SDS011;2289;48.316;15.174;2024-03-02T00:33:21;53.07;;;24.70;;
4553;SDS011;2289;48.316;15.174;2024-03-02T00:42:06;41.33;;;24.47;;
4553;SDS011;2289;48.316;15.174;2024-03-02T00:44:35;42.00;;;26.33;;
4553;SDS011;2289;48.316;15.174;2024-03-02T00:47:05;43.57;;;24.60;;
4553;SDS011;2289;48.316;15.174;2024-03-02T00:49:34;40.40;;;23.33;;
4553;SDS011;2289;48.316;15.174;2024-03-02T00:52:07;38.10;;;25.27;;
4553;SDS011;2289;48.316;15.174;2024-03-02T00:57:45;48.20;;;27.40;;
4553;SDS011;2289;48.316;15.174;2024-03-02T01:00:14;44.80;;;27.00;;
4553;SDS011;2289;48.316;15.174;2024-03-02T01:02:45;50.07;;;28.90;;
4553;SDS011;2289;48.316;15.174;2024-03-02T01:08:20;41.00;;;26.90;;
4553;SDS011;2289;48.316;15.174;2024-03-02T01:10:49;46.13;;;26.97;;
4553;SDS011;2289;48.316;15.174;2024-03-02T01:13:20;43.93;;;27.10;;
4553;SDS011;2289;48.316;15.174;2024-03-02T01:15:50;38.53;;;22.43;;
4553;SDS011;2289;48.316;15.174;2024-03-02T01:24:34;50.47;;;25.33;;
4553;SDS011;2289;48.316;15.174;2024-03-02T01:27:04;40.47;;;25.23;;
4553;SDS011;2289;48.316;15.174;2024-03-02T01:35:48;44.60;;;24.63;;
4553;SDS011;2289;48.316;15.174;2024-03-02T01:44:30;43.93;;;26.50;;
4553;SDS011;2289;48.316;15.174;2024-03-02T01:46:59;47.20;;;25.67;;
4553;SDS011;2289;48.316;15.174;2024-03-02T01:52:38;40.10;;;23.30;;
4553;SDS011;2289;48.316;15.174;2024-03-02T02:01:19;41.57;;;25.53;;
4553;SDS011;2289;48.316;15.174;2024-03-02T02:03:51;44.60;;;26.90;;
4553;SDS011;2289;48.316;15.174;2024-03-02T02:09:28;37.10;;;22.37;;
4553;SDS011;2289;48.316;15.174;2024-03-02T02:21:00;43.97;;;25.60;;
4553;SDS011;2289;48.316;15.174;2024-03-02T02:32:51;37.27;;;22.33;;
4553;SDS011;2289;48.316;15.174;2024-03-02T02:35:23;39.53;;;23.03;;
4553;SDS011;2289;48.316;15.174;2024-03-02T02:41:00;41.30;;;22.60;;
4553;SDS011;2289;48.316;15.174;2024-03-02T02:43:30;41.37;;;23.40;;
4553;SDS011;2289;48.316;15.174;2024-03-02T02:49:08;42.07;;;25.80;;
4553;SDS011;2289;48.316;15.174;2024-03-02T02:51:37;42.00;;;25.27;;
4553;SDS011;2289;48.316;15.174;2024-03-02T02:54:06;49.03;;;25.67;;
4553;SDS011;2289;48.316;15.174;2024-03-02T02:56:36;49.07;;;25.70;;
4553;SDS011;2289;48.316;15.174;2024-03-02T02:59:05;44.80;;;25.60;;
4553;SDS011;2289;48.316;15.174;2024-03-02T03:01:34;39.87;;;25.07;;
4553;SDS011;2289;48.316;15.174;2024-03-02T03:04:04;42.87;;;25.00;;
4553;SDS011;2289;48.316;15.174;2024-03-02T03:09:41;37.93;;;24.83;;
4553;SDS011;2289;48.316;15.174;2024-03-02T03:18:24;42.57;;;24.13;;
4553;SDS011;2289;48.316;15.174;2024-03-02T03:23:59;46.30;;;25.60;;
4553;SDS011;2289;48.316;15.174;2024-03-02T03:26:30;40.13;;;26.13;;
4553;SDS011;2289;48.316;15.174;2024-03-02T03:28:59;45.83;;;25.77;;
4553;SDS011;2289;48.316;15.174;2024-03-02T03:37:42;39.40;;;25.87;;
4553;SDS011;2289;48.316;15.174;2024-03-02T03:40:11;38.93;;;25.03;;
4553;SDS011;2289;48.316;15.174;2024-03-02T03:45:49;41.03;;;24.50;;
4553;SDS011;2289;48.316;15.174;2024-03-02T03:57:37;54.63;;;29.80;;
4553;SDS011;2289;48.316;15.174;2024-03-02T04:03:15;49.47;;;27.70;;
4553;SDS011;2289;48.316;15.174;2024-03-02T04:05:44;49.27;;;29.37;;
4553;SDS011;2289;48.316;15.174;2024-03-02T04:08:13;55.50;;;28.83;;
4553;SDS011;2289;48.316;15.174;2024-03-02T04:10:42;45.07;;;26.97;;
4553;SDS011;2289;48.316;15.174;2024-03-02T04:16:17;52.17;;;27.70;;
4553;SDS011;2289;48.316;15.174;2024-03-02T04:25:01;59.30;;;30.80;;
4553;SDS011;2289;48.316;15.174;2024-03-02T04:27:32;52.73;;;28.07;;
4553;SDS011;2289;48.316;15.174;2024-03-02T04:30:01;58.83;;;31.67;;
4553;SDS011;2289;48.316;15.174;2024-03-02T04:32:30;48.90;;;26.70;;
4553;SDS011;2289;48.316;15.174;2024-03-02T04:34:59;56.20;;;31.73;;
4553;SDS011;2289;48.316;15.174;2024-03-02T04:37:28;48.70;;;27.97;;
4553;SDS011;2289;48.316;15.174;2024-03-02T04:39:58;56.80;;;32.20;;
4553;SDS011;2289;48.316;15.174;2024-03-02T04:42:28;71.37;;;31.90;;
4553;SDS011;2289;48.316;15.174;2024-03-02T04:44:57;49.93;;;30.33;;
4553;SDS011;2289;48.316;15.174;2024-03-02T04:50:32;52.47;;;27.47;;
4553;SDS011;2289;48.316;15.174;2024-03-02T04:53:01;52.30;;;29.50;;
4553;SDS011;2289;48.316;15.174;2024-03-02T05:02:23;53.73;;;28.70;;
4553;SDS011;2289;48.316;15.174;2024-03-02T05:04:52;53.27;;;29.90;;
4553;SDS011;2289;48.316;15.174;2024-03-02T05:07:21;56.37;;;29.47;;
4553;SDS011;2289;48.316;15.174;2024-03-02T05:09:50;52.50;;;29.93;;
4553;SDS011;2289;48.316;15.174;2024-03-02T05:12:19;52.53;;;27.80;;
4553;SDS011;2289;48.316;15.174;2024-03-02T05:15:24;52.13;;;29.00;;
4553;SDS011;2289;48.316;15.174;2024-03-02T05:17:54;60.70;;;30.20;;
4553;SDS011;2289;48.316;15.174;2024-03-02T05:20:26;52.10;;;30.00;;
4553;SDS011;2289;48.316;15.174;2024-03-02T05:22:54;57.47;;;28.97;;
4553;SDS011;2289;48.316;15.174;2024-03-02T05:25:23;53.77;;;29.63;;
4553;SDS011;2289;48.316;15.174;2024-03-02T05:27:51;50.37;;;28.50;;
4553;SDS011;2289;48.316;15.174;2024-03-02T05:30:21;53.40;;;29.47;;
4553;SDS011;2289;48.316;15.174;2024-03-02T05:32:50;45.23;;;25.60;;
4553;SDS011;2289;48.316;15.174;2024-03-02T05:35:20;47.93;;;25.97;;
4553;SDS011;2289;48.316;15.174;2024-03-02T05:37:49;52.37;;;29.07;;
4553;SDS011;2289;48.316;15.174;2024-03-02T05:40:18;56.53;;;26.97;;
4553;SDS011;2289;48.316;15.174;2024-03-02T05:42:50;55.60;;;30.57;;
4553;SDS011;2289;48.316;15.174;2024-03-02T05:45:19;50.00;;;28.77;;
4553;SDS011;2289;48.316;15.174;2024-03-02T05:47:47;43.70;;;24.77;;
4553;SDS011;2289;48.316;15.174;2024-03-02T05:50:25;40.27;;;22.40;;
4553;SDS011;2289;48.316;15.174;2024-03-02T05:52:56;43.90;;;23.30;;
4553;SDS011;2289;48.316;15.174;2024-03-02T05:55:25;34.20;;;18.93;;
4553;SDS011;2289;48.316;15.174;2024-03-02T05:57:54;28.83;;;18.80;;
4553;SDS011;2289;48.316;15.174;2024-03-02T06:00:38;26.57;;;17.37;;
4553;SDS011;2289;48.316;15.174;2024-03-02T06:03:07;28.57;;;16.47;;
4553;SDS011;2289;48.316;15.174;2024-03-02T06:05:38;28.27;;;17.87;;
4553;SDS011;2289;48.316;15.174;2024-03-02T06:08:07;25.07;;;16.17;;
4553;SDS011;2289;48.316;15.174;2024-03-02T06:10:36;23.93;;;17.20;;
4553;SDS011;2289;48.316;15.174;2024-03-02T06:13:05;26.80;;;16.30;;
4553;SDS011;2289;48.316;15.174;2024-03-02T06:15:34;28.97;;;17.10;;
4553;SDS011;2289;48.316;15.174;2024-03-02T06:18:03;22.60;;;15.30;;
4553;SDS011;2289;48.316;15.174;2024-03-02T06:20:33;25.53;;;15.57;;
4553;SDS011;2289;48.316;15.174;2024-03-02T06:23:04;20.07;;;13.83;;
4553;SDS011;2289;48.316;15.174;2024-03-02T06:25:33;21.60;;;12.87;;
4553;SDS011;2289;48.316;15.174;2024-03-02T06:28:01;17.40;;;11.27;;
4553;SDS011;2289;48.316;15.174;2024-03-02T06:30:31;16.63;;;12.47;;
4553;SDS011;2289;48.316;15.174;2024-03-02T06:33:00;16.30;;;11.97;;
4553;SDS011;2289;48.316;15.174;2024-03-02T06:35:31;19.50;;;13.03;;
4553;SDS011;2289;48.316;15.174;2024-03-02T06:38:00;18.07;;;12.80;;
4553;SDS011;2289;48.316;15.174;2024-03-02T06:40:30;22.30;;;14.80;;
4553;SDS011;2289;48.316;15.174;2024-03-02T06:42:59;20.10;;;13.80;;
4553;SDS011;2289;48.316;15.174;2024-03-02T06:45:28;17.10;;;13.87;;
4553;SDS011;2289;48.316;15.174;2024-03-02T06:47:57;24.23;;;14.93;;
4553;SDS011;2289;48.316;15.174;2024-03-02T06:50:26;20.97;;;13.67;;
4553;SDS011;2289;48.316;15.174;2024-03-02T06:52:54;21.10;;;13.03;;
4553;SDS011;2289;48.316;15.174;2024-03-02T06:55:22;22.17;;;13.77;;
4553;SDS011;2289;48.316;15.174;2024-03-02T06:57:53;21.93;;;14.80;;
4553;SDS011;2289;48.316;15.174;2024-03-02T07:00:21;20.27;;;14.20;;
4553;SDS011;2289;48.316;15.174;2024-03-02T07:02:49;23.20;;;13.47;;
4553;SDS011;2289;48.316;15.174;2024-03-02T07:05:18;20.10;;;13.47;;
4553;SDS011;2289;48.316;15.174;2024-03-02T07:07:47;24.07;;;14.13;;
4553;SDS011;2289;48.316;15.174;2024-03-02T07:10:16;24.70;;;15.30;;
4553;SDS011;2289;48.316;15.174;2024-03-02T07:12:44;20.93;;;12.97;;
4553;SDS011;2289;48.316;15.174;2024-03-02T07:15:14;20.00;;;12.60;;
4553;SDS011;2289;48.316;15.174;2024-03-02T07:18:03;12.73;;;8.90;;
4553;SDS011;2289;48.316;15.174;2024-03-02T07:20:32;13.00;;;9.47;;
4553;SDS011;2289;48.316;15.174;2024-03-02T07:23:00;13.70;;;9.73;;
4553;SDS011;2289;48.316;15.174;2024-03-02T07:25:29;13.70;;;9.60;;
4553;SDS011;2289;48.316;15.174;2024-03-02T07:28:00;14.13;;;10.33;;
4553;SDS011;2289;48.316;15.174;2024-03-02T07:30:31;21.73;;;10.17;;
4553;SDS011;2289;48.316;15.174;2024-03-02T07:33:00;15.00;;;9.40;;
4553;SDS011;2289;48.316;15.174;2024-03-02T07:35:29;16.30;;;12.60;;
4553;SDS011;2289;48.316;15.174;2024-03-02T07:37:58;20.60;;;14.40;;
4553;SDS011;2289;48.316;15.174;2024-03-02T07:40:27;19.13;;;13.07;;
4553;SDS011;2289;48.316;15.174;2024-03-02T07:42:55;25.43;;;15.63;;
4553;SDS011;2289;48.316;15.174;2024-03-02T07:45:24;21.13;;;13.47;;
4553;SDS011;2289;48.316;15.174;2024-03-02T07:47:54;22.60;;;15.70;;
4553;SDS011;2289;48.316;15.174;2024-03-02T07:50:23;23.43;;;15.10;;
4553;SDS011;2289;48.316;15.174;2024-03-02T07:52:51;26.27;;;17.83;;
4553;SDS011;2289;48.316;15.174;2024-03-02T07:55:21;27.50;;;17.07;;
4553;SDS011;2289;48.316;15.174;2024-03-02T07:57:52;24.63;;;16.30;;
4553;SDS011;2289;48.316;15.174;2024-03-02T08:00:21;29.10;;;16.93;;
4553;SDS011;2289;48.316;15.174;2024-03-02T08:02:50;30.50;;;19.10;;
4553;SDS011;2289;48.316;15.174;2024-03-02T08:05:20;24.43;;;16.10;;
4553;SDS011;2289;48.316;15.174;2024-03-02T08:07:48;20.07;;;15.23;;
4553;SDS011;2289;48.316;15.174;2024-03-02T08:10:20;25.03;;;17.67;;
4553;SDS011;2289;48.316;15.174;2024-03-02T08:12:48;25.10;;;16.40;;
4553;SDS011;2289;48.316;15.174;2024-03-02T08:15:17;28.23;;;16.30;;
4553;SDS011;2289;48.316;15.174;2024-03-02T08:17:45;16.50;;;13.20;;
4553;SDS011;2289;48.316;15.174;2024-03-02T08:20:16;23.27;;;14.20;;
4553;SDS011;2289;48.316;15.174;2024-03-02T08:22:46;22.20;;;14.87;;
4553;SDS011;2289;48.316;15.174;2024-03-02T08:25:15;20.30;;;13.70;;
4553;SDS011;2289;48.316;15.174;2024-03-02T08:27:44;25.07;;;15.30;;
4553;SDS011;2289;48.316;15.174;2024-03-02T08:30:13;23.83;;;15.90;;
4553;SDS011;2289;48.316;15.174;2024-03-02T08:32:41;19.93;;;13.53;;
4553;SDS011;2289;48.316;15.174;2024-03-02T08:35:10;21.70;;;15.50;;
4553;SDS011;2289;48.316;15.174;2024-03-02T08:37:39;19.20;;;13.97;;
4553;SDS011;2289;48.316;15.174;2024-03-02T08:40:10;21.30;;;14.83;;
4553;SDS011;2289;48.316;15.174;2024-03-02T08:42:43;21.27;;;15.00;;
4553;SDS011;2289;48.316;15.174;2024-03-02T08:45:12;22.80;;;15.83;;
4553;SDS011;2289;48.316;15.174;2024-03-02T08:47:41;24.67;;;14.63;;
4553;SDS011;2289;48.316;15.174;2024-03-02T08:50:10;27.10;;;18.47;;
4553;SDS011;2289;48.316;15.174;2024-03-02T08:52:39;26.80;;;17.50;;
4553;SDS011;2289;48.316;15.174;2024-03-02T08:55:14;23.23;;;15.70;;
4553;SDS011;2289;48.316;15.174;2024-03-02T08:57:43;26.53;;;16.47;;
4553;SDS011;2289;48.316;15.174;2024-03-02T09:00:11;24.57;;;16.53;;
4553;SDS011;2289;48.316;15.174;2024-03-02T09:02:40;26.20;;;17.27;;
4553;SDS011;2289;48.316;15.174;2024-03-02T09:05:09;28.47;;;18.33;;
4553;SDS011;2289;48.316;15.174;2024-03-02T09:07:38;21.40;;;15.10;;
4553;SDS011;2289;48.316;15.174;2024-03-02T09:10:07;22.20;;;16.70;;
4553;SDS011;2289;48.316;15.174;2024-03-02T09:12:38;22.93;;;15.97;;
4553;SDS011;2289;48.316;15.174;2024-03-02T09:15:07;24.70;;;16.77;;
4553;SDS011;2289;48.316;15.174;2024-03-02T09:17:36;20.63;;;15.70;;
4553;SDS011;2289;48.316;15.174;2024-03-02T09:20:05;23.00;;;17.90;;
4553;SDS011;2289;48.316;15.174;2024-03-02T09:22:34;21.23;;;16.63;;
4553;SDS011;2289;48.316;15.174;2024-03-02T09:25:03;20.00;;;15.40;;
4553;SDS011;2289;48.316;15.174;2024-03-02T09:27:35;19.80;;;14.57;;
4553;SDS011;2289;48.316;15.174;2024-03-02T09:30:08;19.40;;;13.70;;
4553;SDS011;2289;48.316;15.174;2024-03-02T09:32:37;24.93;;;15.00;;
4553;SDS011;2289;48.316;15.174;2024-03-02T09:35:06;18.33;;;14.40;;
4553;SDS011;2289;48.316;15.174;2024-03-02T09:37:36;20.60;;;14.30;;
4553;SDS011;2289;48.316;15.174;2024-03-02T09:40:05;22.60;;;15.20;;
4553;SDS011;2289;48.316;15.174;2024-03-02T09:42:34;20.27;;;15.27;;
4553;SDS011;2289;48.316;15.174;2024-03-02T09:45:05;19.00;;;13.93;;
4553;SDS011;2289;48.316;15.174;2024-03-02T09:47:34;20.33;;;15.77;;
4553;SDS011;2289;48.316;15.174;2024-03-02T09:50:03;19.77;;;14.33;;
4553;SDS011;2289;48.316;15.174;2024-03-02T09:52:31;17.80;;;15.00;;
4553;SDS011;2289;48.316;15.174;2024-03-02T09:55:01;20.73;;;14.23;;
4553;SDS011;2289;48.316;15.174;2024-03-02T09:57:30;22.27;;;14.33;;
4553;SDS011;2289;48.316;15.174;2024-03-02T09:59:59;22.23;;;14.60;;
4553;SDS011;2289;48.316;15.174;2024-03-02T10:02:29;19.17;;;13.43;;
4553;SDS011;2289;48.316;15.174;2024-03-02T10:04:57;19.93;;;13.67;;
4553;SDS011;2289;48.316;15.174;2024-03-02T10:07:26;15.93;;;14.30;;
4553;SDS011;2289;48.316;15.174;2024-03-02T10:09:55;22.90;;;14.70;;
4553;SDS011;2289;48.316;15.174;2024-03-02T10:12:24;20.00;;;15.30;;
4553;SDS011;2289;48.316;15.174;2024-03-02T10:14:55;20.50;;;14.40;;
4553;SDS011;2289;48.316;15.174;2024-03-02T10:17:36;24.03;;;14.77;;
4553;SDS011;2289;48.316;15.174;2024-03-02T10:20:21;21.97;;;15.47;;
4553;SDS011;2289;48.316;15.174;2024-03-02T10:22:52;19.77;;;14.70;;
4553;SDS011;2289;48.316;15.174;2024-03-02T10:25:30;20.37;;;14.23;;
4553;SDS011;2289;48.316;15.174;2024-03-02T10:28:17;20.87;;;14.43;;
4553;SDS011;2289;48.316;15.174;2024-03-02T10:30:47;22.23;;;17.80;;
4553;SDS011;2289;48.316;15.174;2024-03-02T10:33:17;19.50;;;15.00;;
4553;SDS011;2289;48.316;15.174;2024-03-02T10:35:47;21.83;;;14.83;;
4553;SDS011;2289;48.316;15.174;2024-03-02T10:38:17;20.93;;;14.43;;
4553;SDS011;2289;48.316;15.174;2024-03-02T10:40:46;20.80;;;14.37;;
4553;SDS011;2289;48.316;15.174;2024-03-02T10:43:16;18.80;;;14.10;;
4553;SDS011;2289;48.316;15.174;2024-03-02T10:45:45;21.63;;;15.47;;
4553;SDS011;2289;48.316;15.174;2024-03-02T10:48:17;22.10;;;16.93;;
4553;SDS011;2289;48.316;15.174;2024-03-02T10:50:46;21.20;;;15.17;;
4553;SDS011;2289;48.316;15.174;2024-03-02T10:53:15;21.97;;;17.60;;
4553;SDS011;2289;48.316;15.174;2024-03-02T10:55:44;22.40;;;16.87;;
4553;SDS011;2289;48.316;15.174;2024-03-02T10:58:13;17.97;;;14.13;;
4553;SDS011;2289;48.316;15.174;2024-03-02T11:00:42;22.30;;;16.70;;
4553;SDS011;2289;48.316;15.174;2024-03-02T11:03:12;21.47;;;14.80;;
4553;SDS011;2289;48.316;15.174;2024-03-02T11:05:44;21.33;;;16.80;;
4553;SDS011;2289;48.316;15.174;2024-03-02T11:08:16;17.93;;;15.97;;
4553;SDS011;2289;48.316;15.174;2024-03-02T11:10:50;18.80;;;15.23;;
4553;SDS011;2289;48.316;15.174;2024-03-02T11:13:21;20.40;;;16.87;;
4553;SDS011;2289;48.316;15.174;2024-03-02T11:15:52;19.00;;;16.77;;
4553;SDS011;2289;48.316;15.174;2024-03-02T11:18:24;21.40;;;17.37;;
4553;SDS011;2289;48.316;15.174;2024-03-02T11:20:55;20.17;;;17.13;;
4553;SDS011;2289;48.316;15.174;2024-03-02T11:23:31;20.30;;;16.60;;
4553;SDS011;2289;48.316;15.174;2024-03-02T11:28:50;22.47;;;19.40;;
4553;SDS011;2289;48.316;15.174;2024-03-02T11:31:19;21.97;;;17.70;;
4553;SDS011;2289;48.316;15.174;2024-03-02T11:33:48;25.37;;;19.50;;
4553;SDS011;2289;48.316;15.174;2024-03-02T11:36:18;21.23;;;17.80;;
4553;SDS011;2289;48.316;15.174;2024-03-02T11:38:47;25.80;;;20.03;;
4553;SDS011;2289;48.316;15.174;2024-03-02T11:41:20;24.33;;;18.90;;
4553;SDS011;2289;48.316;15.174;2024-03-02T11:43:49;21.47;;;15.80;;
4553;SDS011;2289;48.316;15.174;2024-03-02T11:46:17;22.60;;;17.80;;
4553;SDS011;2289;48.316;15.174;2024-03-02T11:48:50;21.70;;;16.87;;
4553;SDS011;2289;48.316;15.174;2024-03-02T11:51:20;26.10;;;17.80;;
4553;SDS011;2289;48.316;15.174;2024-03-02T11:53:50;23.70;;;18.30;;
4553;SDS011;2289;48.316;15.174;2024-03-02T11:56:19;26.80;;;18.00;;
4553;SDS011;2289;48.316;15.174;2024-03-02T11:58:47;26.03;;;16.80;;
4553;SDS011;2289;48.316;15.174;2024-03-02T12:01:19;30.77;;;21.33;;
4553;SDS011;2289;48.316;15.174;2024-03-02T12:03:53;26.73;;;20.23;;
4553;SDS011;2289;48.316;15.174;2024-03-02T12:06:23;24.00;;;18.10;;
4553;SDS011;2289;48.316;15.174;2024-03-02T12:08:55;29.20;;;18.90;;
4553;SDS011;2289;48.316;15.174;2024-03-02T12:11:24;22.90;;;17.50;;
4553;SDS011;2289;48.316;15.174;2024-03-02T12:13:53;28.37;;;18.03;;
4553;SDS011;2289;48.316;15.174;2024-03-02T12:16:24;25.47;;;19.80;;
4553;SDS011;2289;48.316;15.174;2024-03-02T12:18:54;27.20;;;19.33;;
4553;SDS011;2289;48.316;15.174;2024-03-02T12:21:24;25.17;;;20.07;;
4553;SDS011;2289;48.316;15.174;2024-03-02T12:23:54;27.43;;;18.87;;
4553;SDS011;2289;48.316;15.174;2024-03-02T12:26:23;26.43;;;18.90;;
4553;SDS011;2289;48.316;15.174;2024-03-02T12:28:52;28.43;;;19.13;;
4553;SDS011;2289;48.316;15.174;2024-03-02T12:31:21;30.40;;;19.17;;
4553;SDS011;2289;48.316;15.174;2024-03-02T12:33:50;28.37;;;19.23;;
4553;SDS011;2289;48.316;15.174;2024-03-02T12:36:19;25.60;;;16.83;;
4553;SDS011;2289;48.316;15.174;2024-03-02T12:38:53;25.30;;;17.23;;
4553;SDS011;2289;48.316;15.174;2024-03-02T12:41:30;24.40;;;17.33;;
4553;SDS011;2289;48.316;15.174;2024-03-02T12:43:59;23.83;;;15.60;;
4553;SDS011;2289;48.316;15.174;2024-03-02T12:46:28;22.73;;;16.57;;
4553;SDS011;2289;48.316;15.174;2024-03-02T12:48:56;26.57;;;17.50;;
4553;SDS011;2289;48.316;15.174;2024-03-02T12:51:26;23.80;;;16.33;;
4553;SDS011;2289;48.316;15.174;2024-03-02T12:53:57;24.57;;;17.07;;
4553;SDS011;2289;48.316;15.174;2024-03-02T12:56:27;22.83;;;17.90;;
4553;SDS011;2289;48.316;15.174;2024-03-02T12:58:55;27.17;;;19.50;;
4553;SDS011;2289;48.316;15.174;2024-03-02T13:01:24;27.50;;;16.73;;
4553;SDS011;2289;48.316;15.174;2024-03-02T13:03:53;28.27;;;19.33;;
4553;SDS011;2289;48.316;15.174;2024-03-02T13:06:24;30.07;;;21.30;;
4553;SDS011;2289;48.316;15.174;2024-03-02T13:08:55;24.73;;;18.53;;
4553;SDS011;2289;48.316;15.174;2024-03-02T13:11:25;26.83;;;19.00;;
4553;SDS011;2289;48.316;15.174;2024-03-02T13:13:55;34.13;;;20.70;;
4553;SDS011;2289;48.316;15.174;2024-03-02T13:16:24;33.67;;;22.50;;
4553;SDS011;2289;48.316;15.174;2024-03-02T13:18:59;29.90;;;20.13;;
4553;SDS011;2289;48.316;15.174;2024-03-02T13:21:29;28.17;;;21.40;;
4553;SDS011;2289;48.316;15.174;2024-03-02T13:23:58;29.00;;;20.77;;
4553;SDS011;2289;48.316;15.174;2024-03-02T13:26:28;28.70;;;20.67;;
4553;SDS011;2289;48.316;15.174;2024-03-02T13:28:57;29.57;;;20.70;;
4553;SDS011;2289;48.316;15.174;2024-03-02T13:31:25;28.13;;;21.27;;
4553;SDS011;2289;48.316;15.174;2024-03-02T13:33:54;26.23;;;17.93;;
4553;SDS011;2289;48.316;15.174;2024-03-02T13:36:23;27.53;;;19.37;;
4553;SDS011;2289;48.316;15.174;2024-03-02T13:38:52;29.57;;;20.37;;
4553;SDS011;2289;48.316;15.174;2024-03-02T13:41:21;30.10;;;20.00;;
4553;SDS011;2289;48.316;15.174;2024-03-02T13:43:51;28.23;;;20.80;;
4553;SDS011;2289;48.316;15.174;2024-03-02T13:46:20;26.83;;;17.17;;
4553;SDS011;2289;48.316;15.174;2024-03-02T13:48:48;26.30;;;19.00;;
4553;SDS011;2289;48.316;15.174;2024-03-02T13:51:18;32.50;;;20.40;;
4553;SDS011;2289;48.316;15.174;2024-03-02T13:53:47;27.57;;;19.27;;
4553;SDS011;2289;48.316;15.174;2024-03-02T13:56:15;28.23;;;19.40;;
4553;SDS011;2289;48.316;15.174;2024-03-02T13:58:44;23.10;;;16.57;;
4553;SDS011;2289;48.316;15.174;2024-03-02T14:01:17;22.00;;;15.40;;
4553;SDS011;2289;48.316;15.174;2024-03-02T14:03:47;25.07;;;15.90;;
4553;SDS011;2289;48.316;15.174;2024-03-02T14:06:16;22.00;;;16.00;;
4553;SDS011;2289;48.316;15.174;2024-03-02T14:08:45;22.50;;;15.07;;
4553;SDS011;2289;48.316;15.174;2024-03-02T14:11:16;19.40;;;13.90;;
4553;SDS011;2289;48.316;15.174;2024-03-02T14:13:45;24.10;;;15.47;;
4553;SDS011;2289;48.316;15.174;2024-03-02T14:16:18;16.63;;;12.70;;
4553;SDS011;2289;48.316;15.174;2024-03-02T14:18:46;18.33;;;12.33;;
4553;SDS011;2289;48.316;15.174;2024-03-02T14:21:16;17.17;;;11.90;;
4553;SDS011;2289;48.316;15.174;2024-03-02T14:23:45;16.90;;;12.20;;
4553;SDS011;2289;48.316;15.174;2024-03-02T14:26:14;18.80;;;12.57;;
4553;SDS011;2289;48.316;15.174;2024-03-02T14:28:43;21.43;;;15.00;;
4553;SDS011;2289;48.316;15.174;2024-03-02T14:31:19;18.87;;;13.73;;
4553;SDS011;2289;48.316;15.174;2024-03-02T14:33:48;23.67;;;14.10;;
4553;SDS011;2289;48.316;15.174;2024-03-02T14:36:17;15.60;;;13.93;;
4553;SDS011;2289;48.316;15.174;2024-03-02T14:38:46;16.90;;;12.87;;
4553;SDS011;2289;48.316;15.174;2024-03-02T14:41:15;18.30;;;13.90;;
4553;SDS011;2289;48.316;15.174;2024-03-02T14:43:44;20.33;;;12.67;;
4553;SDS011;2289;48.316;15.174;2024-03-02T14:46:13;16.83;;;14.57;;
4553;SDS011;2289;48.316;15.174;2024-03-02T14:48:45;21.23;;;14.30;;
4553;SDS011;2289;48.316;15.174;2024-03-02T14:51:16;19.53;;;13.67;;
4553;SDS011;2289;48.316;15.174;2024-03-02T14:53:45;19.20;;;13.97;;
4553;SDS011;2289;48.316;15.174;2024-03-02T14:56:14;25.37;;;16.10;;
4553;SDS011;2289;48.316;15.174;2024-03-02T14:58:45;25.07;;;16.20;;
4553;SDS011;2289;48.316;15.174;2024-03-02T15:01:18;20.70;;;15.23;;
4553;SDS011;2289;48.316;15.174;2024-03-02T15:03:51;23.73;;;15.43;;
4553;SDS011;2289;48.316;15.174;2024-03-02T15:06:20;21.10;;;14.40;;
4553;SDS011;2289;48.316;15.174;2024-03-02T15:08:52;23.27;;;15.33;;
4553;SDS011;2289;48.316;15.174;2024-03-02T15:11:22;21.77;;;13.83;;
4553;SDS011;2289;48.316;15.174;2024-03-02T15:13:52;22.90;;;15.10;;
4553;SDS011;2289;48.316;15.174;2024-03-02T15:16:20;18.70;;;13.10;;
4553;SDS011;2289;48.316;15.174;2024-03-02T15:18:51;20.57;;;16.03;;
4553;SDS011;2289;48.316;15.174;2024-03-02T15:21:20;21.80;;;15.90;;
4553;SDS011;2289;48.316;15.174;2024-03-02T15:23:49;20.90;;;16.80;;
4553;SDS011;2289;48.316;15.174;2024-03-02T15:26:18;19.23;;;15.10;;
4553;SDS011;2289;48.316;15.174;2024-03-02T15:28:47;21.60;;;15.37;;
4553;SDS011;2289;48.316;15.174;2024-03-02T15:31:16;23.27;;;16.77;;
4553;SDS011;2289;48.316;15.174;2024-03-02T15:33:45;24.27;;;17.57;;
4553;SDS011;2289;48.316;15.174;2024-03-02T15:36:16;24.13;;;18.63;;
4553;SDS011;2289;48.316;15.174;2024-03-02T15:38:44;26.20;;;18.53;;
4553;SDS011;2289;48.316;15.174;2024-03-02T15:41:13;35.27;;;20.37;;
4553;SDS011;2289;48.316;15.174;2024-03-02T15:43:42;42.50;;;25.50;;
4553;SDS011;2289;48.316;15.174;2024-03-02T15:46:10;29.80;;;22.27;;
4553;SDS011;2289;48.316;15.174;2024-03-02T15:48:39;33.83;;;20.93;;
4553;SDS011;2289;48.316;15.174;2024-03-02T15:51:08;29.30;;;20.00;;
4553;SDS011;2289;48.316;15.174;2024-03-02T15:53:38;25.43;;;18.70;;
4553;SDS011;2289;48.316;15.174;2024-03-02T15:56:07;37.20;;;20.50;;
4553;SDS011;2289;48.316;15.174;2024-03-02T15:58:36;34.73;;;20.10;;
4553;SDS011;2289;48.316;15.174;2024-03-02T16:01:05;36.50;;;22.90;;
4553;SDS011;2289;48.316;15.174;2024-03-02T16:03:34;34.70;;;21.23;;
4553;SDS011;2289;48.316;15.174;2024-03-02T16:06:03;28.17;;;19.53;;
4553;SDS011;2289;48.316;15.174;2024-03-02T16:08:32;32.20;;;21.40;;
4553;SDS011;2289;48.316;15.174;2024-03-02T16:11:03;32.77;;;20.80;;
4553;SDS011;2289;48.316;15.174;2024-03-02T16:13:32;32.30;;;22.20;;
4553;SDS011;2289;48.316;15.174;2024-03-02T16:16:02;32.40;;;22.50;;
4553;SDS011;2289;48.316;15.174;2024-03-02T16:18:31;32.93;;;22.00;;
4553;SDS011;2289;48.316;15.174;2024-03-02T16:21:01;32.50;;;23.17;;
4553;SDS011;2289;48.316;15.174;2024-03-02T16:23:31;42.20;;;25.00;;
4553;SDS011;2289;48.316;15.174;2024-03-02T16:26:00;34.17;;;22.50;;
4553;SDS011;2289;48.316;15.174;2024-03-02T16:28:29;47.13;;;25.47;;
4553;SDS011;2289;48.316;15.174;2024-03-02T16:30:58;36.97;;;23.77;;
4553;SDS011;2289;48.316;15.174;2024-03-02T16:33:27;37.97;;;25.60;;
4553;SDS011;2289;48.316;15.174;2024-03-02T16:35:56;35.13;;;25.70;;
4553;SDS011;2289;48.316;15.174;2024-03-02T16:38:25;42.33;;;27.83;;
4553;SDS011;2289;48.316;15.174;2024-03-02T16:40:54;49.70;;;29.50;;
4553;SDS011;2289;48.316;15.174;2024-03-02T16:43:23;47.07;;;29.40;;
4553;SDS011;2289;48.316;15.174;2024-03-02T16:45:54;38.13;;;25.60;;
4553;SDS011;2289;48.316;15.174;2024-03-02T16:48:23;39.10;;;28.90;;
4553;SDS011;2289;48.316;15.174;2024-03-02T16:50:51;48.03;;;29.50;;
4553;SDS011;2289;48.316;15.174;2024-03-02T16:53:20;50.30;;;30.00;;
4553;SDS011;2289;48.316;15.174;2024-03-02T16:55:49;48.17;;;29.47;;
4553;SDS011;2289;48.316;15.174;2024-03-02T16:58:18;39.40;;;27.70;;
4553;SDS011;2289;48.316;15.174;2024-03-02T17:00:46;43.87;;;25.70;;
4553;SDS011;2289;48.316;15.174;2024-03-02T17:03:17;40.73;;;24.20;;
4553;SDS011;2289;48.316;15.174;2024-03-02T17:05:45;35.30;;;23.07;;
4553;SDS011;2289;48.316;15.174;2024-03-02T17:08:14;40.97;;;26.00;;
4553;SDS011;2289;48.316;15.174;2024-03-02T17:10:43;34.97;;;23.17;;
4553;SDS011;2289;48.316;15.174;2024-03-02T17:13:12;32.00;;;21.13;;